createdAt,value
2022-11-30T00:00:34.331Z,1.43
2022-11-30T00:03:01.147Z,1.40
2022-11-30T00:05:28.237Z,1.56
2022-11-30T00:07:54.906Z,1.46
2022-11-30T00:10:22.654Z,1.45
2022-11-30T00:12:50.002Z,1.46
2022-11-30T00:15:17.137Z,1.37
2022-11-30T00:17:44.687Z,1.17
2022-11-30T00:20:12.797Z,1.39
2022-11-30T00:22:39.403Z,1.59
2022-11-30T00:25:07.048Z,1.56
2022-11-30T00:27:34.625Z,1.63
2022-11-30T00:30:01.529Z,1.63
2022-11-30T00:32:29.204Z,1.50
2022-11-30T00:34:55.856Z,1.64
2022-11-30T00:37:22.434Z,1.40
2022-11-30T00:39:49.118Z,1.27
2022-11-30T00:42:15.715Z,1.28
2022-11-30T00:44:42.291Z,1.30
2022-11-30T00:47:08.882Z,1.42
2022-11-30T00:49:35.655Z,1.48
2022-11-30T00:52:02.396Z,1.41
2022-11-30T00:54:28.957Z,1.23
2022-11-30T00:56:55.531Z,1.21
2022-11-30T00:59:22.101Z,1.39
2022-11-30T01:01:48.698Z,1.36
2022-11-30T01:04:15.322Z,1.15
2022-11-30T01:06:41.889Z,1.32
2022-11-30T01:09:08.595Z,1.36
2022-11-30T01:11:35.237Z,1.18
2022-11-30T01:14:01.858Z,1.25
2022-11-30T01:16:31.273Z,1.29
2022-11-30T01:18:57.969Z,1.37
2022-11-30T01:21:26.952Z,1.27
2022-11-30T01:23:54.535Z,1.23
2022-11-30T01:26:22.238Z,1.04
2022-11-30T01:28:53.982Z,1.23
2022-11-30T01:31:22.809Z,1.39
2022-11-30T01:33:54.320Z,1.41
2022-11-30T01:36:24.219Z,1.44
2022-11-30T01:38:53.801Z,1.26
2022-11-30T01:41:31.795Z,1.34
2022-11-30T01:44:20.272Z,1.36
2022-11-30T01:47:05.813Z,1.29
2022-11-30T01:49:43.637Z,1.31
2022-11-30T01:52:24.620Z,1.38
2022-11-30T01:55:19.313Z,1.08
2022-11-30T01:57:57.163Z,1.05
2022-11-30T02:00:24.324Z,1.15
2022-11-30T02:03:10.300Z,1.24
2022-11-30T02:05:39.510Z,1.27
2022-11-30T02:08:08.007Z,1.19
2022-11-30T02:10:38.630Z,1.23
2022-11-30T02:13:14.316Z,1.27
2022-11-30T02:15:53.967Z,1.33
2022-11-30T02:18:53.329Z,1.24
2022-11-30T02:21:25.703Z,1.24
2022-11-30T02:24:05.389Z,1.28
2022-11-30T02:26:51.049Z,1.30
2022-11-30T02:29:25.728Z,1.30
2022-11-30T02:32:04.590Z,1.15
2022-11-30T02:34:35.332Z,1.13
2022-11-30T02:37:03.741Z,1.10
2022-11-30T02:39:30.419Z,1.10
2022-11-30T02:41:57.013Z,1.09
2022-11-30T02:44:24.725Z,1.12
2022-11-30T02:47:01.191Z,1.30
2022-11-30T02:49:33.005Z,1.33
2022-11-30T02:52:01.612Z,1.36
2022-11-30T02:54:28.193Z,1.31
2022-11-30T02:56:54.780Z,1.35
2022-11-30T02:59:21.931Z,1.41
2022-11-30T03:01:48.549Z,1.45
2022-11-30T03:04:15.208Z,1.52
2022-11-30T03:06:41.801Z,1.71
2022-11-30T03:09:08.471Z,1.50
2022-11-30T03:11:35.096Z,1.59
2022-11-30T03:14:01.681Z,1.66
2022-11-30T03:16:28.307Z,1.73
2022-11-30T03:18:54.929Z,1.65
2022-11-30T03:21:21.533Z,1.62
2022-11-30T03:23:48.117Z,1.56
2022-11-30T03:26:15.036Z,1.67
2022-11-30T03:28:41.617Z,1.46
2022-11-30T03:31:12.260Z,1.67
2022-11-30T03:33:41.178Z,1.65
2022-11-30T03:36:10.374Z,1.57
2022-11-30T03:38:37.650Z,1.50
2022-11-30T03:41:13.293Z,1.60
2022-11-30T03:43:40.239Z,1.89
2022-11-30T03:46:06.907Z,1.60
2022-11-30T03:48:33.662Z,1.54
2022-11-30T03:51:00.326Z,1.50
2022-11-30T03:53:27.005Z,1.48
2022-11-30T03:55:55.979Z,1.60
2022-11-30T03:58:24.160Z,1.63
2022-11-30T04:00:57.900Z,1.63
2022-11-30T04:03:24.506Z,1.66
2022-11-30T04:05:51.193Z,1.37
2022-11-30T04:08:17.780Z,1.40
2022-11-30T04:10:46.988Z,1.48
2022-11-30T04:13:14.006Z,1.35
2022-11-30T04:15:40.673Z,1.43
2022-11-30T04:18:07.288Z,1.48
2022-11-30T04:20:38.833Z,1.63
2022-11-30T04:23:07.059Z,1.73
2022-11-30T04:25:33.644Z,1.64
2022-11-30T04:28:00.263Z,1.81
2022-11-30T04:30:26.858Z,1.61
2022-11-30T04:32:53.432Z,1.43
2022-11-30T04:35:20.009Z,1.43
2022-11-30T04:37:46.658Z,1.38
2022-11-30T04:40:13.617Z,1.49
2022-11-30T04:42:40.209Z,1.58
2022-11-30T04:45:07.411Z,1.65
2022-11-30T04:47:33.991Z,1.50
2022-11-30T04:50:00.694Z,1.66
2022-11-30T04:52:27.294Z,1.73
2022-11-30T04:54:53.868Z,1.69
2022-11-30T04:57:20.675Z,1.59
2022-11-30T04:59:47.284Z,1.51
2022-11-30T05:02:13.962Z,1.62
2022-11-30T05:04:40.614Z,1.69
2022-11-30T05:07:07.519Z,1.59
2022-11-30T05:09:34.105Z,1.75
2022-11-30T05:12:01.072Z,1.67
2022-11-30T05:14:27.700Z,1.58
2022-11-30T05:16:54.269Z,1.66
2022-11-30T05:19:20.936Z,1.75
2022-11-30T05:21:47.520Z,1.89
2022-11-30T05:24:14.123Z,1.82
2022-11-30T05:26:40.805Z,1.80
2022-11-30T05:29:07.443Z,1.67
2022-11-30T05:31:34.139Z,1.58
2022-11-30T05:34:00.734Z,1.57
2022-11-30T05:36:27.318Z,1.73
2022-11-30T05:38:54.025Z,1.69
2022-11-30T05:41:20.614Z,2.04
2022-11-30T05:43:47.264Z,2.12
2022-11-30T05:46:13.955Z,1.94
2022-11-30T05:48:40.573Z,1.83
2022-11-30T05:51:16.109Z,1.71
2022-11-30T05:53:43.845Z,1.59
2022-11-30T05:56:16.351Z,1.76
2022-11-30T05:58:43.670Z,1.79
2022-11-30T06:01:26.665Z,1.94
2022-11-30T06:03:54.126Z,1.96
2022-11-30T06:06:21.254Z,1.84
2022-11-30T06:08:49.207Z,1.74
2022-11-30T06:11:16.661Z,1.66
2022-11-30T06:13:43.260Z,1.70
2022-11-30T06:16:09.885Z,1.90
2022-11-30T06:18:37.775Z,1.93
2022-11-30T06:21:10.368Z,2.12
2022-11-30T06:23:37.634Z,1.79
2022-11-30T06:26:10.469Z,1.81
2022-11-30T06:28:37.924Z,1.76
2022-11-30T06:31:06.659Z,1.80
2022-11-30T06:33:33.630Z,1.70
2022-11-30T06:36:00.245Z,1.65
2022-11-30T06:38:26.851Z,1.70
2022-11-30T06:40:53.520Z,1.76
2022-11-30T06:43:20.421Z,1.87
2022-11-30T06:45:47.451Z,1.98
2022-11-30T06:48:14.700Z,1.94
2022-11-30T06:50:45.496Z,1.78
2022-11-30T06:53:15.460Z,1.78
2022-11-30T06:55:42.049Z,1.80
2022-11-30T06:58:09.963Z,1.69
2022-11-30T07:00:37.158Z,2.08
2022-11-30T07:03:04.858Z,1.97
2022-11-30T07:05:36.071Z,1.85
2022-11-30T07:08:02.699Z,1.73
2022-11-30T07:10:29.406Z,1.92
2022-11-30T07:12:56.026Z,2.01
2022-11-30T07:15:22.705Z,1.98
2022-11-30T07:17:49.297Z,1.83
2022-11-30T07:20:15.915Z,1.96
2022-11-30T07:22:42.534Z,2.10
2022-11-30T07:25:09.626Z,1.87
2022-11-30T07:27:36.225Z,1.97
2022-11-30T07:30:03.298Z,1.92
2022-11-30T07:32:29.861Z,1.85
2022-11-30T07:34:56.441Z,2.02
2022-11-30T07:37:23.035Z,2.05
2022-11-30T07:39:49.608Z,1.96
2022-11-30T07:42:16.397Z,1.96
2022-11-30T07:44:43.050Z,1.99
2022-11-30T07:47:09.683Z,2.04
2022-11-30T07:49:36.274Z,1.89
2022-11-30T07:52:02.870Z,2.16
2022-11-30T07:54:29.509Z,2.24
2022-11-30T07:56:56.112Z,2.27
2022-11-30T07:59:22.794Z,2.12
2022-11-30T08:01:49.615Z,2.24
2022-11-30T08:04:16.299Z,2.27
2022-11-30T08:06:43.009Z,2.33
2022-11-30T08:09:14.261Z,2.43
2022-11-30T08:11:44.510Z,2.42
2022-11-30T08:14:12.340Z,2.41
2022-11-30T08:16:39.027Z,2.51
2022-11-30T08:19:05.645Z,2.39
2022-11-30T08:21:32.500Z,2.51
2022-11-30T08:23:59.184Z,2.52
2022-11-30T08:26:31.549Z,2.47
2022-11-30T08:29:00.280Z,2.44
2022-11-30T08:31:30.548Z,2.54
2022-11-30T08:33:59.863Z,2.65
2022-11-30T08:36:28.682Z,2.72
2022-11-30T08:38:57.854Z,2.73
2022-11-30T08:41:25.115Z,2.88
2022-11-30T08:43:52.723Z,2.72
2022-11-30T08:57:33.522Z,2.68
2022-11-30T09:00:00.155Z,2.91
2022-11-30T09:02:27.326Z,3.37
2022-11-30T09:04:53.927Z,3.27
2022-11-30T09:07:20.593Z,3.30
2022-11-30T09:09:47.422Z,3.16
2022-11-30T09:12:14.057Z,3.46
2022-11-30T09:14:40.667Z,3.36
2022-11-30T09:17:07.244Z,3.50
2022-11-30T09:19:33.840Z,4.12
2022-11-30T09:22:00.436Z,4.39
2022-11-30T09:24:27.087Z,4.30
2022-11-30T09:26:56.925Z,4.47
2022-11-30T09:29:23.949Z,4.38
2022-11-30T09:31:50.542Z,4.21
2022-11-30T09:34:17.156Z,4.20
2022-11-30T09:36:43.795Z,4.17
2022-11-30T09:39:11.287Z,4.30
2022-11-30T09:42:02.528Z,4.52
2022-11-30T09:44:42.022Z,4.90
2022-11-30T09:47:33.099Z,4.70
2022-11-30T09:50:14.165Z,4.84
2022-11-30T09:52:44.730Z,4.70
2022-11-30T09:55:18.089Z,4.52
2022-11-30T09:57:54.496Z,4.44
2022-11-30T10:00:23.610Z,4.79
2022-11-30T10:02:53.161Z,4.97
2022-11-30T10:05:23.694Z,4.83
2022-11-30T10:08:12.904Z,4.78
2022-11-30T10:10:44.510Z,5.08
2022-11-30T10:13:26.540Z,4.86
2022-11-30T10:16:14.685Z,4.89
2022-11-30T10:19:07.047Z,5.01
2022-11-30T10:22:07.718Z,5.01
2022-11-30T10:24:55.584Z,4.92
2022-11-30T10:27:36.838Z,4.78
2022-11-30T10:30:06.518Z,4.92
2022-11-30T10:32:38.495Z,4.82
2022-11-30T10:35:33.689Z,4.87
2022-11-30T10:38:05.517Z,4.94
2022-11-30T10:40:45.806Z,5.21
2022-11-30T10:43:24.407Z,4.97
2022-11-30T10:45:51.583Z,4.99
2022-11-30T10:48:40.288Z,5.02
2022-11-30T10:51:08.329Z,5.19
2022-11-30T10:53:34.918Z,5.17
2022-11-30T10:56:11.482Z,5.06
2022-11-30T10:58:49.949Z,5.08
2022-11-30T11:01:33.557Z,4.90
2022-11-30T11:04:17.840Z,4.88
2022-11-30T11:06:50.390Z,5.24
2022-11-30T11:09:36.902Z,5.06
2022-11-30T11:12:15.487Z,5.10
2022-11-30T11:14:42.108Z,5.29
2022-11-30T11:17:17.923Z,5.12
2022-11-30T11:19:49.937Z,5.00
2022-11-30T11:22:22.684Z,5.11
2022-11-30T11:24:53.541Z,5.40
2022-11-30T11:27:26.047Z,5.28
2022-11-30T11:30:01.860Z,5.37
2022-11-30T11:32:29.302Z,5.74
2022-11-30T11:34:56.513Z,5.71
2022-11-30T11:37:33.847Z,5.43
2022-11-30T11:40:16.328Z,5.53
2022-11-30T11:42:49.381Z,5.58
2022-11-30T11:45:26.271Z,5.56
2022-11-30T11:48:05.352Z,5.38
2022-11-30T11:51:05.608Z,5.48
2022-11-30T11:53:24.505Z,5.56
2022-11-30T11:55:55.708Z,5.72
2022-11-30T11:58:38.322Z,5.93
2022-11-30T12:01:38.499Z,5.95
2022-11-30T12:04:36.661Z,5.67
2022-11-30T12:07:23.198Z,5.50
2022-11-30T12:10:51.381Z,5.34
2022-11-30T12:13:18.346Z,5.30
2022-11-30T12:16:03.337Z,5.48
2022-11-30T12:18:51.430Z,5.46
2022-11-30T12:21:42.931Z,5.52
2022-11-30T12:24:34.283Z,5.38
2022-11-30T12:27:33.701Z,5.62
2022-11-30T12:30:03.742Z,5.43
2022-11-30T12:33:07.324Z,5.58
2022-11-30T12:35:49.533Z,5.79
2022-11-30T12:38:37.848Z,5.56
2022-11-30T12:41:17.121Z,5.75
2022-11-30T12:44:11.680Z,5.82
2022-11-30T12:46:59.702Z,5.52
2022-11-30T12:49:44.426Z,5.51
2022-11-30T12:52:49.542Z,5.58
2022-11-30T12:55:30.516Z,5.40
2022-11-30T12:58:12.750Z,5.33
2022-11-30T13:00:48.560Z,5.40
2022-11-30T13:03:33.568Z,5.56
2022-11-30T13:06:05.878Z,5.67
2022-11-30T13:08:49.038Z,5.52
2022-11-30T13:11:38.592Z,5.62
2022-11-30T13:14:14.471Z,5.67
2022-11-30T13:16:43.439Z,5.90
2022-11-30T13:19:46.777Z,6.00
2022-11-30T13:22:24.058Z,5.80
2022-11-30T13:25:09.951Z,5.63
2022-11-30T13:27:58.177Z,5.69
2022-11-30T13:30:56.445Z,5.57
2022-11-30T13:33:35.461Z,5.56
2022-11-30T13:36:14.439Z,5.44
2022-11-30T13:38:41.087Z,5.15
2022-11-30T13:41:08.794Z,5.41
2022-11-30T13:43:41.740Z,5.51
2022-11-30T13:46:15.603Z,5.11
2022-11-30T13:48:44.751Z,5.55
2022-11-30T13:51:12.716Z,5.41
2022-11-30T13:53:40.663Z,5.58
2022-11-30T13:56:19.271Z,5.23
2022-11-30T13:59:22.913Z,5.54
2022-11-30T14:04:44.777Z,5.70
2022-11-30T14:07:36.992Z,5.52
2022-11-30T14:10:23.761Z,5.32
2022-11-30T14:13:10.036Z,5.29
2022-11-30T14:15:39.554Z,5.37
2022-11-30T14:18:08.820Z,5.46
2022-11-30T14:20:47.720Z,5.10
2022-11-30T14:23:38.821Z,5.03
2022-11-30T14:26:11.639Z,5.25
2022-11-30T14:28:52.191Z,5.43
2022-11-30T14:31:24.486Z,5.26
2022-11-30T14:33:57.534Z,5.43
2022-11-30T14:36:32.967Z,5.36
2022-11-30T14:38:59.597Z,5.07
2022-11-30T14:41:28.785Z,5.26
2022-11-30T14:44:14.363Z,5.09
2022-11-30T14:46:41.807Z,5.10
2022-11-30T14:49:17.335Z,5.11
2022-11-30T14:51:48.307Z,5.09
2022-11-30T14:54:38.731Z,4.91
2022-11-30T14:57:27.924Z,5.13
2022-11-30T14:59:56.282Z,4.96
2022-11-30T15:02:31.048Z,5.17
2022-11-30T15:04:59.210Z,5.17
2022-11-30T15:07:27.894Z,4.92
2022-11-30T15:10:29.776Z,5.09
2022-11-30T15:12:58.471Z,5.02
2022-11-30T15:15:27.050Z,5.02
2022-11-30T15:17:56.667Z,4.74
2022-11-30T15:20:39.545Z,4.83
2022-11-30T15:23:13.563Z,5.12
2022-11-30T15:25:45.295Z,5.08
2022-11-30T15:28:17.385Z,5.05
2022-11-30T15:30:47.368Z,4.77
2022-11-30T15:33:22.221Z,5.16
2022-11-30T15:36:14.205Z,4.74
2022-11-30T15:38:39.099Z,5.08
2022-11-30T15:41:18.713Z,4.97
2022-11-30T15:43:50.427Z,4.76
2022-11-30T15:46:36.867Z,4.66
2022-11-30T15:49:06.300Z,4.80
2022-11-30T15:51:41.281Z,5.08
2022-11-30T15:54:07.885Z,5.03
2022-11-30T15:56:34.959Z,5.05
2022-11-30T15:59:02.909Z,4.86
2022-11-30T16:01:30.071Z,4.56
2022-11-30T16:03:56.644Z,4.45
2022-11-30T16:06:28.677Z,4.69
2022-11-30T16:08:55.772Z,4.65
2022-11-30T16:11:22.602Z,4.46
2022-11-30T16:13:49.283Z,4.60
2022-11-30T16:16:22.265Z,4.61
2022-11-30T16:18:49.615Z,4.75
2022-11-30T16:21:18.678Z,4.28
2022-11-30T16:23:45.510Z,4.04
2022-11-30T16:26:43.147Z,4.53
2022-11-30T16:29:00.537Z,4.67
2022-11-30T16:31:27.171Z,4.82
2022-11-30T16:33:53.780Z,4.90
2022-11-30T16:36:21.379Z,4.96
2022-11-30T16:38:52.283Z,4.99
2022-11-30T16:41:19.743Z,4.55
2022-11-30T16:43:48.505Z,4.35
2022-11-30T16:46:18.429Z,4.24
2022-11-30T16:48:45.433Z,3.89
2022-11-30T16:51:21.033Z,3.74
2022-11-30T16:53:47.809Z,3.94
2022-11-30T16:56:15.532Z,3.70
2022-11-30T16:58:43.244Z,3.68
2022-11-30T17:01:34.722Z,3.78
2022-11-30T17:04:11.659Z,3.76
2022-11-30T17:06:38.378Z,3.86
2022-11-30T17:09:04.958Z,3.81
2022-11-30T17:11:34.412Z,3.88
2022-11-30T17:14:01.056Z,4.12
2022-11-30T17:16:27.776Z,4.10
2022-11-30T17:18:54.659Z,3.90
2022-11-30T17:21:28.669Z,3.88
2022-11-30T17:23:55.547Z,3.13
2022-11-30T17:26:22.239Z,3.05
2022-11-30T17:28:48.814Z,3.06
2022-11-30T17:31:15.649Z,3.19
2022-11-30T17:33:47.930Z,3.18
2022-11-30T17:36:16.791Z,3.30
2022-11-30T17:38:43.384Z,3.50
2022-11-30T17:41:18.523Z,3.54
2022-11-30T17:43:46.469Z,3.57
2022-11-30T17:46:18.759Z,3.77
2022-11-30T17:48:45.705Z,3.72
2022-11-30T17:51:13.175Z,3.80
2022-11-30T17:53:41.334Z,3.58
2022-11-30T17:56:11.163Z,3.62
2022-11-30T17:58:43.450Z,3.58
2022-11-30T18:01:25.831Z,3.69
2022-11-30T18:03:53.705Z,3.74
2022-11-30T18:06:20.783Z,3.91
2022-11-30T18:08:47.711Z,3.92
2022-11-30T18:11:19.359Z,4.23
2022-11-30T18:13:46.905Z,4.04
2022-11-30T18:16:17.335Z,4.19
2022-11-30T18:18:47.715Z,3.81
2022-11-30T18:21:17.215Z,4.03
2022-11-30T18:23:43.830Z,3.61
2022-11-30T18:26:16.468Z,3.70
2022-11-30T18:28:43.822Z,3.80
2022-11-30T18:31:10.509Z,3.94
2022-11-30T18:33:37.883Z,4.25
2022-11-30T18:36:05.907Z,3.87
2022-11-30T18:38:37.238Z,3.79
2022-11-30T18:41:05.380Z,3.62
2022-11-30T18:43:31.972Z,3.52
2022-11-30T18:46:06.299Z,3.45
2022-11-30T18:48:33.410Z,3.42
2022-11-30T18:51:00.523Z,3.53
2022-11-30T18:53:27.123Z,3.39
2022-11-30T18:55:56.425Z,3.36
2022-11-30T18:58:23.010Z,3.40
2022-11-30T19:00:50.724Z,3.49
2022-11-30T19:03:17.339Z,3.42
2022-11-30T19:05:43.931Z,3.51
2022-11-30T19:08:14.289Z,3.58
2022-11-30T19:10:40.865Z,3.20
2022-11-30T19:13:07.642Z,2.99
2022-11-30T19:15:39.018Z,3.01
2022-11-30T19:18:06.218Z,3.16
2022-11-30T19:20:38.895Z,3.22
2022-11-30T19:23:08.151Z,3.28
2022-11-30T19:25:34.784Z,3.60
2022-11-30T19:28:01.488Z,3.34
2022-11-30T19:30:28.147Z,3.36
2022-11-30T19:32:54.798Z,3.25
2022-11-30T19:35:21.881Z,3.22
2022-11-30T19:37:48.676Z,3.24
2022-11-30T19:40:15.349Z,3.27
2022-11-30T19:42:41.920Z,3.34
2022-11-30T19:45:10.168Z,3.30
2022-11-30T19:47:36.787Z,3.21
2022-11-30T19:50:04.997Z,3.21
2022-11-30T19:52:31.588Z,3.30
2022-11-30T19:54:58.188Z,3.31
2022-11-30T19:57:24.818Z,3.34
2022-11-30T19:59:51.437Z,3.36
2022-11-30T20:02:18.055Z,3.27
2022-11-30T20:04:44.749Z,3.43
2022-11-30T20:07:11.359Z,3.54
2022-11-30T20:09:37.954Z,3.62
2022-11-30T20:12:04.884Z,3.58
2022-11-30T20:14:31.477Z,3.88
2022-11-30T20:16:58.137Z,3.90
2022-11-30T20:19:24.793Z,3.85
2022-11-30T20:21:51.453Z,3.55
2022-11-30T20:24:18.019Z,3.19
2022-11-30T20:26:44.997Z,3.37
2022-11-30T20:29:17.094Z,3.40
2022-11-30T20:31:45.921Z,3.52
2022-11-30T20:34:12.530Z,3.11
2022-11-30T20:36:39.300Z,3.22
2022-11-30T20:39:06.544Z,3.04
2022-11-30T20:41:33.951Z,3.34
2022-11-30T20:44:00.991Z,3.23
2022-11-30T20:46:30.253Z,3.16
2022-11-30T20:48:57.846Z,3.23
2022-11-30T20:51:31.674Z,3.08
2022-11-30T20:54:04.004Z,3.18
2022-11-30T20:56:30.697Z,3.14
2022-11-30T20:59:00.862Z,3.23
2022-11-30T21:01:27.595Z,3.27
2022-11-30T21:03:54.213Z,3.04
2022-11-30T21:06:20.788Z,3.19
2022-11-30T21:08:47.440Z,3.14
2022-11-30T21:11:16.544Z,3.44
2022-11-30T21:13:45.377Z,3.27
2022-11-30T21:16:13.997Z,3.41
2022-11-30T21:18:42.310Z,3.54
2022-11-30T21:21:15.288Z,3.39
2022-11-30T21:23:42.130Z,3.23
2022-11-30T21:26:21.264Z,2.99
2022-11-30T21:28:49.673Z,2.92
2022-11-30T21:31:16.755Z,2.66
2022-11-30T21:33:48.895Z,2.85
2022-11-30T21:36:19.509Z,3.00
2022-11-30T21:38:46.235Z,2.88
2022-11-30T21:41:14.250Z,2.85
2022-11-30T21:43:41.486Z,2.87
2022-11-30T21:46:13.439Z,2.87
2022-11-30T21:48:42.234Z,2.93
2022-11-30T21:51:11.544Z,2.90
2022-11-30T21:53:43.788Z,2.99
2022-11-30T21:56:14.521Z,3.01
2022-11-30T21:58:43.481Z,2.94
2022-11-30T22:01:19.128Z,2.87
2022-11-30T22:03:46.392Z,2.81
2022-11-30T22:06:15.630Z,2.90
2022-11-30T22:08:42.942Z,3.01
2022-11-30T22:11:12.462Z,2.89
2022-11-30T22:13:40.650Z,2.91
2022-11-30T22:16:13.103Z,3.25
2022-11-30T22:18:41.695Z,3.17
2022-11-30T22:21:14.246Z,3.21
2022-11-30T22:24:02.954Z,3.33
2022-11-30T22:26:35.371Z,3.22
2022-11-30T22:29:04.402Z,3.22
2022-11-30T22:31:40.094Z,3.23
2022-11-30T22:34:07.235Z,3.39
2022-11-30T22:36:36.609Z,3.25
2022-11-30T22:39:21.903Z,2.97
2022-11-30T22:41:54.794Z,3.18
2022-11-30T22:44:22.244Z,3.37
2022-11-30T22:46:48.901Z,3.66
2022-11-30T22:49:20.841Z,3.37
2022-11-30T22:51:50.319Z,3.03
2022-11-30T22:54:17.470Z,2.85
2022-11-30T22:56:44.215Z,2.79
2022-11-30T22:59:12.244Z,2.78
2022-11-30T23:01:47.591Z,2.97
2022-11-30T23:04:16.828Z,2.85
2022-11-30T23:06:44.660Z,2.93
2022-11-30T23:09:14.522Z,2.75
2022-11-30T23:11:41.897Z,2.58
2022-11-30T23:14:08.739Z,2.62
2022-11-30T23:16:39.612Z,3.15
2022-11-30T23:19:06.756Z,3.23
2022-11-30T23:21:41.020Z,3.10
2022-11-30T23:24:13.594Z,3.00
2022-11-30T23:26:41.040Z,2.95
2022-11-30T23:29:11.123Z,3.14
2022-11-30T23:31:39.160Z,3.13
2022-11-30T23:34:12.392Z,2.84
2022-11-30T23:36:39.117Z,2.77
2022-11-30T23:39:09.340Z,2.57
2022-11-30T23:41:36.592Z,2.60
2022-11-30T23:54:21.163Z,2.25
2022-11-30T23:56:47.752Z,2.33
2022-11-30T23:59:14.355Z,2.50
